createdAt,value
2019-02-26T00:01:16.427Z,10.17
2019-02-26T00:03:45.370Z,10.63
2019-02-26T00:06:16.154Z,9.90
2019-02-26T00:08:49.215Z,8.83
2019-02-26T00:11:18.237Z,8.93
2019-02-26T00:13:50.148Z,11.93
2019-02-26T00:16:20.710Z,9.80
2019-02-26T00:18:50.874Z,9.50
2019-02-26T00:21:22.697Z,9.90
2019-02-26T00:23:53.142Z,10.03
2019-02-26T00:26:22.967Z,9.23
2019-02-26T00:28:52.793Z,10.53
2019-02-26T00:31:24.308Z,10.23
2019-02-26T00:33:54.573Z,10.17
2019-02-26T00:36:24.577Z,10.60
2019-02-26T00:38:56.026Z,9.63
2019-02-26T00:41:26.918Z,9.53
2019-02-26T00:43:58.146Z,9.47
2019-02-26T00:46:30.288Z,9.23
2019-02-26T00:49:03.028Z,9.60
2019-02-26T00:51:32.482Z,9.57
2019-02-26T00:54:04.039Z,9.67
2019-02-26T00:56:36.333Z,9.17
2019-02-26T00:59:05.405Z,10.27
2019-02-26T01:01:35.115Z,9.77
2019-02-26T01:04:05.070Z,9.97
2019-02-26T01:06:34.756Z,10.40
2019-02-26T01:09:08.784Z,11.43
2019-02-26T01:11:37.697Z,11.70
2019-02-26T01:14:07.451Z,13.87
2019-02-26T01:16:39.304Z,13.70
2019-02-26T01:19:10.752Z,13.03
2019-02-26T01:21:40.479Z,10.77
2019-02-26T01:24:10.398Z,12.37
2019-02-26T01:26:42.537Z,11.37
2019-02-26T01:29:16.053Z,11.13
2019-02-26T01:31:43.768Z,12.27
2019-02-26T01:34:14.061Z,10.67
2019-02-26T01:36:47.227Z,10.10
2019-02-26T01:39:18.605Z,9.73
2019-02-26T01:41:50.391Z,8.90
2019-02-26T01:44:20.042Z,8.70
2019-02-26T01:46:49.809Z,9.47
2019-02-26T01:49:21.415Z,8.90
2019-02-26T01:51:51.867Z,9.87
2019-02-26T01:54:22.926Z,9.00
2019-02-26T01:56:53.414Z,8.03
2019-02-26T01:59:23.445Z,9.93
2019-02-26T02:01:53.793Z,11.33
2019-02-26T02:04:24.833Z,14.83
2019-02-26T02:06:56.603Z,14.07
2019-02-26T02:09:26.300Z,14.37
2019-02-26T02:11:57.377Z,15.40
2019-02-26T02:14:27.508Z,18.73
2019-02-26T02:16:57.378Z,13.43
2019-02-26T02:19:29.583Z,14.40
2019-02-26T02:21:59.015Z,15.33
2019-02-26T02:24:28.890Z,20.17
2019-02-26T02:27:00.303Z,22.33
2019-02-26T02:29:30.115Z,15.47
2019-02-26T02:32:04.388Z,14.70
2019-02-26T02:34:32.948Z,13.53
2019-02-26T02:37:03.068Z,11.63
2019-02-26T02:39:32.870Z,12.10
2019-02-26T02:42:02.809Z,13.17
2019-02-26T02:44:32.713Z,11.60
2019-02-26T02:47:04.254Z,10.67
2019-02-26T02:49:37.419Z,11.60
2019-02-26T02:52:07.196Z,10.97
2019-02-26T02:54:38.558Z,11.77
2019-02-26T02:57:09.971Z,14.37
2019-02-26T02:59:42.284Z,18.80
2019-02-26T03:02:12.692Z,21.57
2019-02-26T03:04:42.938Z,20.47
2019-02-26T03:07:15.079Z,13.60
2019-02-26T03:09:45.777Z,14.70
2019-02-26T03:12:15.615Z,11.70
2019-02-26T03:14:46.082Z,10.40
2019-02-26T03:17:18.184Z,12.43
2019-02-26T03:19:47.511Z,12.70
2019-02-26T03:22:18.913Z,14.37
2019-02-26T03:24:51.359Z,16.00
2019-02-26T03:27:20.340Z,15.90
2019-02-26T03:29:52.394Z,16.40
2019-02-26T03:32:21.657Z,17.60
2019-02-26T03:34:51.446Z,18.47
2019-02-26T03:37:23.271Z,17.30
2019-02-26T03:39:55.231Z,18.40
2019-02-26T03:42:24.542Z,16.33
2019-02-26T03:44:54.329Z,13.63
2019-02-26T03:47:24.085Z,10.77
2019-02-26T03:49:53.862Z,10.83
2019-02-26T03:52:23.549Z,10.83
2019-02-26T03:54:53.436Z,9.87
2019-02-26T03:57:24.771Z,12.67
2019-02-26T03:59:54.789Z,9.37
2019-02-26T04:02:24.719Z,9.27
2019-02-26T04:04:57.079Z,9.60
2019-02-26T04:07:28.363Z,8.33
2019-02-26T04:09:59.303Z,8.50
2019-02-26T04:12:29.107Z,8.20
2019-02-26T04:14:59.023Z,9.80
2019-02-26T04:17:30.720Z,13.33
2019-02-26T04:20:02.677Z,17.73
2019-02-26T04:22:39.235Z,15.10
2019-02-26T04:25:14.913Z,15.03
2019-02-26T04:27:51.126Z,22.33
2019-02-26T04:30:57.596Z,20.20
2019-02-26T04:33:58.907Z,12.17
2019-02-26T04:37:07.161Z,10.77
2019-02-26T04:40:30.550Z,10.43
2019-02-26T04:43:42.139Z,9.10
2019-02-26T04:46:42.193Z,9.67
2019-02-26T04:49:11.970Z,11.30
2019-02-26T04:51:44.520Z,17.97
2019-02-26T04:54:17.504Z,37.23
2019-02-26T04:56:47.844Z,19.80
2019-02-26T04:59:17.045Z,12.60
2019-02-26T05:01:49.097Z,11.97
2019-02-26T05:04:18.329Z,13.50
2019-02-26T05:06:48.130Z,14.37
2019-02-26T05:09:18.079Z,12.83
2019-02-26T05:11:47.806Z,12.40
2019-02-26T05:14:23.025Z,12.53
2019-02-26T05:16:49.198Z,11.53
2019-02-26T05:19:21.507Z,13.37
2019-02-26T05:21:50.504Z,11.03
2019-02-26T05:24:21.829Z,11.90
2019-02-26T05:26:51.979Z,12.87
2019-02-26T05:29:21.892Z,11.93
2019-02-26T05:31:51.612Z,13.20
2019-02-26T05:34:23.188Z,10.80
2019-02-26T05:36:53.082Z,11.40
2019-02-26T05:39:24.226Z,10.03
2019-02-26T05:41:58.906Z,11.73
2019-02-26T05:44:27.438Z,11.40
2019-02-26T05:46:58.767Z,10.13
2019-02-26T05:49:28.678Z,11.90
2019-02-26T05:51:59.357Z,13.80
2019-02-26T05:54:29.981Z,15.03
2019-02-26T05:57:01.860Z,16.23
2019-02-26T05:59:31.533Z,17.50
2019-02-26T06:02:01.469Z,20.83
2019-02-26T06:04:32.078Z,19.87
2019-02-26T06:07:04.703Z,19.77
2019-02-26T06:09:34.620Z,24.03
2019-02-26T06:12:04.539Z,28.50
2019-02-26T06:14:36.276Z,30.20
2019-02-26T06:17:07.291Z,29.00
2019-02-26T06:19:45.396Z,23.93
2019-02-26T06:22:18.192Z,22.33
2019-02-26T06:24:46.891Z,19.07
2019-02-26T06:27:19.591Z,22.17
2019-02-26T06:29:48.157Z,22.80
2019-02-26T06:32:18.062Z,24.17
2019-02-26T06:34:47.906Z,25.83
2019-02-26T06:37:23.501Z,23.70
2019-02-26T06:39:55.643Z,21.20
2019-02-26T06:42:25.088Z,19.47
2019-02-26T06:44:54.852Z,23.40
2019-02-26T06:47:26.476Z,16.53
2019-02-26T06:49:56.250Z,21.53
2019-02-26T06:52:26.012Z,22.17
2019-02-26T06:54:59.555Z,24.40
2019-02-26T06:57:27.597Z,21.07
2019-02-26T07:00:00.669Z,18.00
2019-02-26T07:02:29.180Z,14.80
2019-02-26T07:04:59.105Z,11.90
2019-02-26T07:07:28.977Z,12.53
2019-02-26T07:09:58.720Z,16.87
2019-02-26T07:12:28.533Z,18.37
2019-02-26T07:14:58.619Z,19.83
2019-02-26T07:17:31.866Z,15.33
2019-02-26T07:20:00.873Z,13.73
2019-02-26T07:22:32.406Z,10.73
2019-02-26T07:25:02.356Z,11.43
2019-02-26T07:27:34.176Z,12.70
2019-02-26T07:30:03.598Z,15.80
2019-02-26T07:32:33.463Z,19.03
2019-02-26T07:35:05.870Z,11.67
2019-02-26T07:37:36.307Z,17.27
2019-02-26T07:40:08.750Z,11.47
2019-02-26T07:42:39.616Z,10.20
2019-02-26T07:45:15.110Z,9.67
2019-02-26T07:47:45.117Z,9.23
2019-02-26T07:50:17.329Z,9.97
2019-02-26T07:52:47.366Z,10.37
2019-02-26T07:55:17.901Z,8.50
2019-02-26T07:57:48.993Z,8.90
2019-02-26T08:00:21.203Z,9.30
2019-02-26T08:02:53.600Z,12.60
2019-02-26T08:05:24.273Z,9.63
2019-02-26T08:07:56.434Z,9.87
2019-02-26T08:10:25.969Z,10.07
2019-02-26T08:12:56.661Z,10.30
2019-02-26T08:15:27.806Z,9.67
2019-02-26T08:18:01.269Z,19.07
2019-02-26T08:20:33.504Z,35.03
2019-02-26T08:23:03.280Z,13.10
2019-02-26T08:25:33.351Z,9.73
2019-02-26T08:28:03.093Z,10.07
2019-02-26T08:30:32.715Z,11.17
2019-02-26T08:33:06.768Z,8.93
2019-02-26T08:35:35.526Z,10.43
2019-02-26T08:38:06.308Z,10.40
2019-02-26T08:40:36.208Z,10.13
2019-02-26T08:43:06.195Z,14.63
2019-02-26T08:45:37.090Z,10.40
2019-02-26T08:48:06.714Z,8.77
2019-02-26T08:50:38.842Z,21.20
2019-02-26T08:53:08.552Z,19.50
2019-02-26T08:55:38.544Z,7.90
2019-02-26T08:58:10.681Z,10.63
2019-02-26T09:00:39.852Z,7.53
2019-02-26T09:03:10.747Z,11.53
2019-02-26T09:05:41.438Z,16.43
2019-02-26T09:08:13.405Z,12.00
2019-02-26T09:10:43.736Z,8.17
2019-02-26T09:13:16.306Z,6.80
2019-02-26T09:15:45.626Z,7.40
2019-02-26T09:18:15.440Z,7.97
2019-02-26T09:20:45.341Z,9.13
2019-02-26T09:23:18.836Z,7.80
2019-02-26T09:26:19.792Z,8.70
2019-02-26T09:33:14.772Z,7.00
2019-02-26T09:35:45.252Z,9.67
2019-02-26T09:38:17.760Z,8.77
2019-02-26T09:40:49.520Z,9.73
2019-02-26T09:43:22.539Z,8.63
2019-02-26T09:46:19.178Z,8.93
2019-02-26T09:48:50.461Z,8.50
2019-02-26T09:51:20.334Z,7.87
2019-02-26T09:53:52.130Z,6.87
2019-02-26T09:56:21.860Z,7.37
2019-02-26T09:58:51.639Z,7.93
2019-02-26T10:01:21.417Z,8.33
2019-02-26T10:03:53.621Z,7.70
2019-02-26T10:06:23.582Z,8.70
2019-02-26T10:08:56.018Z,8.27
2019-02-26T10:11:27.757Z,9.27
2019-02-26T10:13:56.616Z,9.83
2019-02-26T10:16:28.109Z,9.30
2019-02-26T10:18:57.990Z,9.40
2019-02-26T10:21:27.615Z,8.97
2019-02-26T10:23:59.296Z,8.93
2019-02-26T10:26:30.868Z,7.53
2019-02-26T10:29:04.426Z,5.80
2019-02-26T10:31:33.529Z,5.67
2019-02-26T10:34:07.932Z,7.10
2019-02-26T10:36:40.823Z,7.17
2019-02-26T10:39:08.779Z,5.17
2019-02-26T10:41:39.975Z,4.93
2019-02-26T10:44:10.321Z,7.70
2019-02-26T10:46:42.544Z,13.00
2019-02-26T10:49:12.506Z,20.73
2019-02-26T10:51:43.094Z,18.97
2019-02-26T10:54:17.095Z,4.57
2019-02-26T10:56:44.867Z,4.00
2019-02-26T10:59:15.877Z,4.00
2019-02-26T11:01:49.595Z,4.37
2019-02-26T11:04:18.726Z,4.20
2019-02-26T11:06:48.635Z,4.43
2019-02-26T11:09:22.260Z,4.83
2019-02-26T11:11:50.208Z,4.50
2019-02-26T11:14:20.199Z,4.83
2019-02-26T11:16:49.937Z,3.90
2019-02-26T11:19:19.915Z,3.77
2019-02-26T11:21:51.947Z,3.40
2019-02-26T11:24:23.469Z,3.60
2019-02-26T11:26:52.875Z,3.93
2019-02-26T11:29:22.665Z,4.30
2019-02-26T11:31:52.428Z,3.40
2019-02-26T11:34:22.354Z,5.60
2019-02-26T11:36:54.176Z,4.57
2019-02-26T11:39:23.810Z,4.47
2019-02-26T11:41:56.253Z,3.53
2019-02-26T11:44:25.791Z,4.53
2019-02-26T11:46:56.759Z,4.40
2019-02-26T11:49:26.642Z,4.10
2019-02-26T11:51:56.581Z,4.90
2019-02-26T11:54:26.398Z,4.40
2019-02-26T11:56:56.232Z,3.00
2019-02-26T11:59:26.242Z,4.60
2019-02-26T12:01:57.181Z,4.63
2019-02-26T12:04:27.440Z,4.17
2019-02-26T12:06:58.614Z,3.77
2019-02-26T12:09:31.971Z,4.60
2019-02-26T12:12:01.393Z,4.40
2019-02-26T12:14:34.466Z,4.37
2019-02-26T12:17:03.838Z,4.37
2019-02-26T12:19:37.035Z,4.97
2019-02-26T12:22:06.329Z,4.37
2019-02-26T12:24:36.282Z,3.83
2019-02-26T12:27:07.317Z,4.40
2019-02-26T12:29:37.608Z,4.03
2019-02-26T12:32:07.344Z,3.27
2019-02-26T12:34:38.567Z,3.73
2019-02-26T12:37:11.597Z,3.97
2019-02-26T12:39:43.727Z,3.57
2019-02-26T12:42:13.966Z,3.57
2019-02-26T12:44:45.518Z,3.80
2019-02-26T12:47:18.803Z,3.73
2019-02-26T12:49:48.195Z,3.10
2019-02-26T12:52:21.235Z,3.90
2019-02-26T12:54:49.729Z,4.50
2019-02-26T12:57:23.044Z,3.77
2019-02-26T12:59:51.284Z,4.80
2019-02-26T13:02:24.675Z,3.53
2019-02-26T13:04:53.462Z,3.53
2019-02-26T13:07:23.388Z,4.33
2019-02-26T13:09:58.982Z,4.03
2019-02-26T13:12:31.512Z,4.07
2019-02-26T13:15:03.232Z,4.50
2019-02-26T13:28:46.733Z,5.33
2019-02-26T13:31:18.034Z,4.53
2019-02-26T13:33:45.001Z,5.27
2019-02-26T13:36:16.327Z,4.70
2019-02-26T13:38:49.192Z,5.33
2019-02-26T13:41:29.319Z,5.10
2019-02-26T13:43:49.509Z,4.57
2019-02-26T13:46:19.424Z,5.70
2019-02-26T13:48:50.725Z,5.60
2019-02-26T13:51:20.370Z,5.50
2019-02-26T13:53:50.076Z,5.10
2019-02-26T13:56:20.053Z,4.97
2019-02-26T13:58:49.716Z,4.97
2019-02-26T14:01:19.422Z,5.07
2019-02-26T14:03:49.274Z,4.90
2019-02-26T14:06:19.171Z,5.77
2019-02-26T14:08:49.075Z,4.70
2019-02-26T14:11:20.243Z,4.10
2019-02-26T14:13:50.247Z,4.93
2019-02-26T14:16:20.099Z,5.13
2019-02-26T14:18:49.975Z,5.53
2019-02-26T14:21:19.886Z,5.40
2019-02-26T14:23:49.967Z,5.90
2019-02-26T14:26:20.912Z,6.60
2019-02-26T14:28:50.666Z,6.20
2019-02-26T14:31:20.669Z,5.43
2019-02-26T14:33:50.478Z,5.20
2019-02-26T14:36:20.518Z,6.53
2019-02-26T14:38:51.699Z,7.17
2019-02-26T14:41:21.407Z,6.30
2019-02-26T14:43:51.226Z,8.13
2019-02-26T14:46:21.025Z,6.67
2019-02-26T14:48:50.934Z,6.60
2019-02-26T14:51:20.778Z,6.47
2019-02-26T14:53:50.853Z,6.07
2019-02-26T14:56:20.683Z,7.90
2019-02-26T14:58:50.467Z,7.03
2019-02-26T15:01:20.287Z,6.20
2019-02-26T15:03:50.219Z,8.20
2019-02-26T15:06:20.058Z,7.27
2019-02-26T15:08:49.730Z,7.27
2019-02-26T15:11:19.541Z,7.13
2019-02-26T15:13:50.520Z,7.00
2019-02-26T15:16:20.427Z,7.57
2019-02-26T15:18:50.233Z,7.53
2019-02-26T15:21:20.141Z,7.40
2019-02-26T15:23:50.428Z,7.50
2019-02-26T15:26:20.307Z,8.00
2019-02-26T15:28:50.140Z,7.40
2019-02-26T15:31:19.925Z,7.97
2019-02-26T15:33:49.782Z,7.87
2019-02-26T15:36:19.444Z,7.47
2019-02-26T15:38:49.545Z,7.43
2019-02-26T15:41:19.425Z,7.87
2019-02-26T15:43:49.083Z,8.13
2019-02-26T15:46:19.017Z,8.43
2019-02-26T15:48:49.047Z,8.03
2019-02-26T15:51:20.100Z,8.33
2019-02-26T15:53:50.785Z,8.53
2019-02-26T15:56:22.294Z,7.83
2019-02-26T15:58:52.050Z,7.77
2019-02-26T16:01:22.002Z,8.40
2019-02-26T16:03:51.804Z,8.27
2019-02-26T16:06:21.757Z,8.83
2019-02-26T16:08:51.639Z,8.93
2019-02-26T16:11:21.698Z,8.17
2019-02-26T16:13:51.563Z,9.07
2019-02-26T16:16:21.383Z,8.33
2019-02-26T16:18:52.525Z,8.13
2019-02-26T16:21:22.232Z,7.67
2019-02-26T16:23:52.250Z,9.23
2019-02-26T16:26:22.087Z,9.17
2019-02-26T16:28:51.889Z,8.60
2019-02-26T16:31:22.933Z,9.00
2019-02-26T16:33:52.951Z,9.13
2019-02-26T16:36:22.757Z,9.40
2019-02-26T16:38:52.909Z,9.33
2019-02-26T16:41:22.721Z,9.20
2019-02-26T16:43:52.471Z,9.13
2019-02-26T16:46:22.479Z,9.13
2019-02-26T16:48:53.533Z,8.57
2019-02-26T16:51:24.053Z,8.73
2019-02-26T16:53:53.913Z,9.17
2019-02-26T16:56:23.845Z,8.63
2019-02-26T16:58:54.011Z,8.57
2019-02-26T17:01:23.664Z,9.13
2019-02-26T17:03:53.461Z,9.00
2019-02-26T17:06:23.467Z,8.77
2019-02-26T17:08:53.200Z,9.57
2019-02-26T17:11:23.031Z,8.93
2019-02-26T17:13:54.078Z,9.80
2019-02-26T17:16:23.884Z,9.10
2019-02-26T17:18:53.685Z,10.20
2019-02-26T17:21:24.736Z,9.60
2019-02-26T17:23:54.445Z,11.00
2019-02-26T17:26:24.377Z,9.63
2019-02-26T17:28:54.227Z,10.80
2019-02-26T17:31:23.878Z,10.67
2019-02-26T17:33:53.699Z,9.90
2019-02-26T17:36:24.863Z,10.33
2019-02-26T17:38:54.782Z,10.83
2019-02-26T17:41:24.612Z,10.53
2019-02-26T17:43:54.346Z,10.83
2019-02-26T17:46:25.849Z,11.97
2019-02-26T17:48:55.682Z,10.53
2019-02-26T17:51:25.756Z,11.17
2019-02-26T17:53:55.818Z,11.10
2019-02-26T17:56:26.691Z,11.37
2019-02-26T17:58:56.808Z,11.93
2019-02-26T18:01:26.888Z,10.90
2019-02-26T18:03:56.934Z,11.93
2019-02-26T18:06:26.873Z,12.50
2019-02-26T18:08:57.131Z,11.93
2019-02-26T18:11:27.180Z,10.30
2019-02-26T18:13:57.857Z,10.47
2019-02-26T18:16:28.657Z,11.63
2019-02-26T18:18:59.566Z,10.27
2019-02-26T18:21:30.519Z,10.27
2019-02-26T18:24:00.896Z,11.93
2019-02-26T18:26:30.574Z,12.17
2019-02-26T18:29:00.669Z,12.93
2019-02-26T18:31:31.262Z,13.67
2019-02-26T18:34:01.466Z,13.10
2019-02-26T18:36:31.463Z,13.50
2019-02-26T18:39:01.177Z,12.60
2019-02-26T18:41:35.101Z,12.53
2019-02-26T18:44:04.346Z,13.77
2019-02-26T18:46:34.306Z,13.30
2019-02-26T18:49:05.136Z,12.43
2019-02-26T18:51:36.540Z,12.47
2019-02-26T18:54:06.619Z,13.77
2019-02-26T18:56:38.873Z,13.83
2019-02-26T18:59:09.065Z,13.03
2019-02-26T19:01:39.118Z,13.00
2019-02-26T19:04:08.945Z,13.23
2019-02-26T19:06:39.027Z,15.10
2019-02-26T19:09:11.642Z,13.37
2019-02-26T19:11:41.034Z,13.70
2019-02-26T19:14:10.788Z,13.87
2019-02-26T19:16:40.654Z,13.60
2019-02-26T19:19:10.470Z,13.87
2019-02-26T19:21:41.645Z,14.30
2019-02-26T19:24:11.655Z,12.87
2019-02-26T19:26:41.366Z,13.80
2019-02-26T19:29:12.410Z,13.57
2019-02-26T19:31:42.833Z,12.80
2019-02-26T19:34:12.948Z,13.37
2019-02-26T19:36:45.845Z,13.87
2019-02-26T19:39:15.732Z,12.97
2019-02-26T19:41:45.939Z,13.77
2019-02-26T19:44:15.601Z,12.73
2019-02-26T19:46:49.396Z,13.53
2019-02-26T19:49:17.282Z,13.27
2019-02-26T19:51:47.076Z,13.87
2019-02-26T19:54:16.856Z,14.47
2019-02-26T19:56:47.019Z,14.40
2019-02-26T19:59:16.842Z,14.10
2019-02-26T20:01:46.679Z,13.53
2019-02-26T20:04:16.455Z,14.40
2019-02-26T20:06:46.383Z,14.13
2019-02-26T20:09:17.924Z,13.27
2019-02-26T20:11:49.918Z,14.47
2019-02-26T20:14:21.744Z,15.30
2019-02-26T20:16:51.159Z,16.47
2019-02-26T20:19:20.882Z,16.80
2019-02-26T20:21:51.721Z,15.10
2019-02-26T20:24:22.085Z,14.40
2019-02-26T20:26:51.952Z,15.20
2019-02-26T20:29:21.882Z,14.70
2019-02-26T20:31:55.608Z,14.40
2019-02-26T20:34:23.423Z,15.43
2019-02-26T20:36:53.263Z,14.60
2019-02-26T20:39:24.406Z,13.77
2019-02-26T20:41:55.683Z,15.17
2019-02-26T20:44:25.760Z,15.87
2019-02-26T20:46:57.966Z,14.80
2019-02-26T20:49:27.160Z,15.20
2019-02-26T20:51:59.418Z,14.00
2019-02-26T20:54:28.612Z,14.33
2019-02-26T20:56:58.429Z,14.47
2019-02-26T20:59:28.167Z,14.83
2019-02-26T21:01:58.063Z,14.03
2019-02-26T21:04:27.859Z,13.73
2019-02-26T21:06:58.946Z,15.53
2019-02-26T21:09:28.812Z,14.60
2019-02-26T21:11:58.536Z,14.60
2019-02-26T21:14:28.411Z,13.97
2019-02-26T21:16:58.369Z,14.00
2019-02-26T21:19:28.089Z,14.50
2019-02-26T21:21:57.969Z,14.30
2019-02-26T21:24:27.712Z,15.13
2019-02-26T21:26:57.516Z,14.70
2019-02-26T21:29:27.489Z,14.90
2019-02-26T21:31:57.247Z,14.80
2019-02-26T21:34:27.063Z,15.20
2019-02-26T21:36:57.844Z,15.13
2019-02-26T21:39:28.548Z,15.70
2019-02-26T21:41:58.552Z,17.37
2019-02-26T21:44:28.312Z,16.40
2019-02-26T21:46:58.115Z,16.00
2019-02-26T21:49:28.137Z,16.33
2019-02-26T21:51:57.879Z,16.53
2019-02-26T21:54:27.634Z,16.00
2019-02-26T21:56:57.507Z,16.10
2019-02-26T21:59:27.280Z,14.70
2019-02-26T22:01:57.067Z,15.27
2019-02-26T22:04:26.914Z,15.60
2019-02-26T22:06:56.819Z,16.20
2019-02-26T22:09:29.928Z,15.43
2019-02-26T22:11:58.378Z,15.17
2019-02-26T22:14:28.200Z,14.87
2019-02-26T22:16:58.044Z,16.10
2019-02-26T22:19:27.925Z,14.87
2019-02-26T22:21:57.745Z,15.57
2019-02-26T22:24:28.769Z,16.03
2019-02-26T22:27:00.088Z,16.40
2019-02-26T22:29:30.252Z,15.50
2019-02-26T22:32:02.428Z,16.57
2019-02-26T22:34:31.521Z,16.90
2019-02-26T22:37:01.467Z,15.20
2019-02-26T22:39:31.302Z,16.03
2019-02-26T22:42:01.169Z,17.20
2019-02-26T22:44:31.255Z,16.20
2019-02-26T22:47:00.990Z,17.10
2019-02-26T22:49:30.913Z,16.67
2019-02-26T22:52:02.094Z,17.43
2019-02-26T22:54:31.781Z,15.97
2019-02-26T22:57:01.589Z,17.27
2019-02-26T22:59:31.443Z,17.77
2019-02-26T23:02:01.319Z,15.50
2019-02-26T23:04:31.243Z,16.17
2019-02-26T23:07:04.448Z,15.80
2019-02-26T23:09:32.973Z,16.10
2019-02-26T23:12:05.113Z,17.20
2019-02-26T23:14:35.884Z,17.07
2019-02-26T23:17:07.639Z,16.57
2019-02-26T23:19:39.369Z,18.53
2019-02-26T23:22:09.539Z,17.33
2019-02-26T23:24:39.366Z,17.80
2019-02-26T23:27:09.566Z,17.83
2019-02-26T23:29:43.830Z,18.00
2019-02-26T23:32:13.657Z,17.63
2019-02-26T23:34:43.437Z,18.63
2019-02-26T23:37:13.330Z,18.60
2019-02-26T23:39:43.551Z,17.10
2019-02-26T23:42:13.410Z,17.30
2019-02-26T23:44:43.203Z,16.73
2019-02-26T23:47:13.165Z,18.00
2019-02-26T23:49:44.904Z,18.67
2019-02-26T23:52:14.272Z,17.27
2019-02-26T23:54:44.056Z,19.17
2019-02-26T23:57:13.817Z,18.87
2019-02-26T23:59:43.829Z,17.83
